Time;durP1;ratioP1;P1;durP2;ratioP2;P2;SDS_P1;SDS_P2;PMS_P1;PMS_P2;Temp;Humidity;BMP_temperature;BMP_pressure;BME280_temperature;BME280_humidity;BME280_pressure;Samples;Min_cycle;Max_cycle;Signal;HPM_P1;HPM_P2
2021/10/02 00:46:52;;;;;;;18.17;9.65;;;8.60;83.30;;;;;;5016023;28;20530;-85
2021/10/02 00:49:18;;;;;;;14.90;8.25;;;8.60;83.20;;;;;;5015920;28;20041;-85
2021/10/02 00:51:46;;;;;;;15.75;8.20;;;8.60;82.90;;;;;;5031913;28;20125;-85
2021/10/02 00:54:13;;;;;;;14.13;7.82;;;8.60;83.10;;;;;;5016399;28;20419;-85
2021/10/02 00:56:40;;;;;;;14.63;7.53;;;8.50;83.40;;;;;;5014669;28;20143;-85
2021/10/02 00:59:06;;;;;;;12.48;7.50;;;8.60;83.80;;;;;;5015858;28;20442;-85
2021/10/02 01:01:44;;;;;;;13.70;8.10;;;8.50;83.70;;;;;;5014757;28;20064;-85
2021/10/02 01:04:29;;;;;;;11.55;7.07;;;8.60;84.20;;;;;;5031459;28;20389;-84
2021/10/02 01:07:34;;;;;;;12.07;7.25;;;8.60;84.70;;;;;;5015626;28;20034;-84
2021/10/02 01:10:28;;;;;;;13.75;7.68;;;8.60;85.50;;;;;;5014822;28;20033;-85
2021/10/02 01:13:21;;;;;;;10.77;6.15;;;8.60;86.20;;;;;;5015540;28;20045;-86
2021/10/02 01:15:53;;;;;;;12.70;6.97;;;8.60;84.90;;;;;;5015488;28;20053;-86
2021/10/02 01:18:30;;;;;;;11.32;7.13;;;8.60;85.00;;;;;;4995467;28;20132;-86
2021/10/02 01:21:15;;;;;;;11.43;6.95;;;8.60;85.30;;;;;;4994642;28;20073;-86
2021/10/02 01:24:03;;;;;;;11.00;7.07;;;8.70;86.80;;;;;;4995710;28;20042;-85
2021/10/02 01:26:34;;;;;;;12.30;7.18;;;8.70;85.80;;;;;;4995423;28;20022;-85
2021/10/02 01:29:06;;;;;;;11.70;7.50;;;8.70;85.10;;;;;;4996094;28;20346;-85
2021/10/02 01:31:41;;;;;;;11.85;7.30;;;8.70;85.30;;;;;;4994260;28;20081;-85
2021/10/02 01:34:20;;;;;;;11.82;7.38;;;8.70;85.00;;;;;;4995585;28;20424;-86
2021/10/02 01:48:05;;;;;;;11.85;7.07;;;8.60;84.60;;;;;;4995588;28;20044;-85
2021/10/02 01:50:38;;;;;;;14.55;8.10;;;8.50;84.40;;;;;;4993278;28;20038;-85
2021/10/02 01:53:05;;;;;;;13.10;7.80;;;8.50;85.40;;;;;;4995636;28;20081;-83
2021/10/02 01:55:34;;;;;;;15.50;9.05;;;8.50;85.70;;;;;;4995378;28;20031;-83
2021/10/02 01:58:22;;;;;;;14.25;8.43;;;8.50;86.00;;;;;;4978224;28;20062;-83
2021/10/02 02:00:49;;;;;;;14.73;8.52;;;8.50;90.50;;;;;;4993958;28;20464;-85
2021/10/02 02:03:18;;;;;;;14.35;8.50;;;8.50;86.50;;;;;;4982701;28;20034;-85
2021/10/02 02:05:46;;;;;;;14.68;8.27;;;8.40;86.50;;;;;;4989891;28;20030;-85
2021/10/02 02:08:15;;;;;;;15.23;9.30;;;8.40;85.70;;;;;;5005376;28;20030;-86
2021/10/02 02:10:42;;;;;;;14.40;8.50;;;8.30;86.10;;;;;;5002545;28;20045;-86
2021/10/02 02:13:10;;;;;;;13.90;7.65;;;8.30;85.90;;;;;;4996608;28;20121;-85
2021/10/02 02:15:38;;;;;;;13.00;8.48;;;8.20;86.30;;;;;;4995470;28;20057;-85
2021/10/02 02:18:14;;;;;;;16.65;8.75;;;8.20;86.50;;;;;;5027149;28;20041;-86
2021/10/02 02:20:47;;;;;;;13.23;8.15;;;8.20;86.40;;;;;;5030268;28;20030;-86
2021/10/02 02:23:13;;;;;;;14.85;8.45;;;8.10;86.50;;;;;;5014183;28;20030;-85
2021/10/02 02:25:44;;;;;;;12.93;8.23;;;8.10;86.30;;;;;;5012338;28;20026;-85
2021/10/02 02:28:09;;;;;;;;;;;8.10;86.60;;;;;;5015741;28;20034;-85
2021/10/02 02:30:36;;;;;;;14.38;7.72;;;8.10;89.70;;;;;;5014457;28;19916;-85
2021/10/02 02:33:04;;;;;;;11.63;7.15;;;8.00;86.10;;;;;;5012824;28;20429;-85
2021/10/02 02:35:30;;;;;;;12.27;7.18;;;8.00;85.80;;;;;;4996903;28;20065;-85
2021/10/02 02:37:57;;;;;;;12.95;7.38;;;8.00;85.80;;;;;;5014149;28;20030;-84
2021/10/02 02:40:24;;;;;;;13.65;7.80;;;7.90;86.30;;;;;;5015117;28;20037;-84
2021/10/02 02:42:51;;;;;;;16.67;8.40;;;7.90;86.00;;;;;;5029261;28;20091;-85
2021/10/02 02:45:18;;;;;;;11.85;7.47;;;7.90;86.20;;;;;;5014342;28;20405;-85
2021/10/02 02:47:48;;;;;;;11.77;7.05;;;7.90;86.30;;;;;;5013120;28;20092;-85
2021/10/02 02:50:34;;;;;;;12.23;7.23;;;8.00;86.30;;;;;;5029355;28;20088;-86
2021/10/02 02:53:22;;;;;;;10.73;6.57;;;8.00;86.70;;;;;;5000896;28;20061;-85
2021/10/02 02:55:54;;;;;;;11.02;6.35;;;8.00;85.80;;;;;;5014118;28;20061;-85
2021/10/02 02:58:22;;;;;;;11.80;7.10;;;8.00;85.50;;;;;;5013318;28;20065;-84
2021/10/02 03:01:00;;;;;;;12.30;7.07;;;8.00;85.50;;;;;;5013957;28;20034;-85
2021/10/02 03:03:29;;;;;;;12.68;7.45;;;8.00;85.90;;;;;;5013738;28;20049;-83
2021/10/02 03:06:08;;;;;;;16.73;7.38;;;8.00;85.80;;;;;;5028991;28;20037;-86
2021/10/02 03:08:37;;;;;;;12.32;7.38;;;7.90;85.60;;;;;;5014509;28;20018;-85
2021/10/02 03:11:04;;;;;;;10.98;7.40;;;7.90;86.10;;;;;;5013177;28;20486;-84
2021/10/02 03:13:34;;;;;;;11.90;7.03;;;8.00;86.10;;;;;;5013834;28;20104;-85
2021/10/02 03:16:02;;;;;;;13.10;7.93;;;8.00;85.90;;;;;;5014050;28;20044;-85
2021/10/02 03:18:31;;;;;;;11.93;6.78;;;8.00;86.20;;;;;;5029424;28;20029;-85
2021/10/02 03:20:57;;;;;;;11.30;7.47;;;8.00;85.50;;;;;;5013365;28;20038;-85
2021/10/02 03:23:27;;;;;;;12.85;8.15;;;8.00;85.20;;;;;;5013982;28;20028;-85
2021/10/02 03:25:53;;;;;;;12.18;7.90;;;7.90;85.60;;;;;;5032331;28;20034;-85
2021/10/02 03:28:20;;;;;;;12.05;7.15;;;7.90;86.10;;;;;;5017394;28;20030;-85
2021/10/02 03:30:46;;;;;;;13.55;7.43;;;7.80;85.80;;;;;;5017403;28;20540;-85
2021/10/02 03:33:13;;;;;;;12.52;8.00;;;7.80;85.70;;;;;;5017496;28;20456;-83
2021/10/02 03:35:40;;;;;;;14.68;9.05;;;7.70;86.00;;;;;;5032825;28;20033;-85
2021/10/02 03:38:06;;;;;;;14.73;8.30;;;7.70;86.00;;;;;;5033502;28;20060;-84
2021/10/02 03:40:32;;;;;;;13.90;8.38;;;7.60;86.10;;;;;;5032809;28;20034;-84
2021/10/02 03:42:59;;;;;;;15.73;9.32;;;7.60;86.50;;;;;;5018501;28;20041;-85
2021/10/02 03:45:31;;;;;;;16.88;10.13;;;7.50;86.60;;;;;;5018033;28;20033;-84
2021/10/02 03:47:57;;;;;;;15.55;9.00;;;7.50;86.40;;;;;;5022794;28;20022;-85
2021/10/02 03:50:24;;;;;;;18.73;9.75;;;7.40;85.90;;;;;;5054904;28;20033;-85
2021/10/02 03:52:49;;;;;;;14.98;8.98;;;7.40;85.90;;;;;;5056140;28;20033;-85
2021/10/02 03:55:16;;;;;;;18.77;10.48;;;7.40;86.30;;;;;;5040520;28;20073;-83
2021/10/02 03:57:42;;;;;;;14.73;8.82;;;7.40;86.40;;;;;;5041367;28;20030;-83
2021/10/02 04:00:09;;;;;;;16.23;9.45;;;7.30;86.10;;;;;;5039253;28;20045;-82
2021/10/02 04:02:35;;;;;;;16.17;9.77;;;7.30;86.50;;;;;;5037870;28;20077;-82
2021/10/02 04:05:01;;;;;;;16.52;10.32;;;7.20;86.50;;;;;;5038467;28;20026;-82
2021/10/02 04:07:27;;;;;;;19.27;10.82;;;7.20;86.70;;;;;;5035340;28;20090;-84
2021/10/02 04:09:53;;;;;;;19.48;10.88;;;7.20;86.50;;;;;;5019505;28;20404;-85
2021/10/02 04:12:19;;;;;;;19.27;10.70;;;7.20;86.60;;;;;;5016837;28;20070;-85
2021/10/02 04:14:47;;;;;;;18.75;10.25;;;7.20;86.50;;;;;;5033528;28;20037;-85
2021/10/02 04:17:16;;;;;;;16.98;9.75;;;7.30;86.10;;;;;;5019160;28;20046;-85
2021/10/02 04:19:43;;;;;;;19.10;11.20;;;7.30;86.10;;;;;;5017732;28;20038;-85
2021/10/02 04:22:12;;;;;;;18.17;10.38;;;7.30;86.00;;;;;;5017850;28;20045;-84
2021/10/02 04:24:41;;;;;;;18.75;11.60;;;7.30;85.80;;;;;;5032383;28;20033;-84
2021/10/02 04:27:07;;;;;;;18.88;11.25;;;7.30;85.90;;;;;;5017384;28;20444;-85
2021/10/02 04:29:35;;;;;;;16.83;10.43;;;7.40;85.50;;;;;;5016930;28;20017;-86
2021/10/02 04:32:01;;;;;;;20.80;10.98;;;7.40;85.40;;;;;;4999458;28;20045;-85
2021/10/02 04:34:26;;;;;;;18.65;10.23;;;7.40;85.10;;;;;;5032361;28;20037;-85
2021/10/02 04:36:58;;;;;;;18.10;10.50;;;7.40;85.00;;;;;;5013861;28;20026;-84
2021/10/02 04:39:26;;;;;;;17.58;9.48;;;7.50;84.90;;;;;;5016296;28;20041;-84
2021/10/02 04:41:52;;;;;;;16.98;9.65;;;7.50;85.20;;;;;;5017006;28;20124;-85
2021/10/02 04:44:30;;;;;;;15.52;8.65;;;7.60;84.60;;;;;;5016807;28;20030;-86
2021/10/02 04:46:55;;;;;;;14.55;8.15;;;7.60;84.30;;;;;;5031805;28;20456;-85
2021/10/02 04:49:21;;;;;;;14.10;8.25;;;7.70;84.00;;;;;;5015778;28;20028;-84
2021/10/02 04:51:47;;;;;;;13.45;7.05;;;7.70;83.70;;;;;;5015871;28;20034;-83
2021/10/02 04:54:12;;;;;;;11.32;7.18;;;7.80;83.40;;;;;;5016319;28;20101;-85
2021/10/02 04:56:41;;;;;;;12.90;7.18;;;7.90;83.30;;;;;;5016497;28;20122;-87
2021/10/02 04:59:06;;;;;;;11.90;6.90;;;7.90;83.00;;;;;;5031764;28;20037;-86
2021/10/02 05:01:33;;;;;;;10.00;6.70;;;8.00;83.00;;;;;;5015661;28;20042;-83
2021/10/02 05:04:01;;;;;;;12.30;8.00;;;8.00;82.60;;;;;;5015709;28;20030;-84
2021/10/02 05:06:27;;;;;;;13.82;8.23;;;8.10;82.50;;;;;;5015416;28;20030;-83
2021/10/02 05:08:53;;;;;;;13.95;8.15;;;8.20;82.30;;;;;;5015633;28;20099;-83
2021/10/02 05:11:19;;;;;;;12.75;8.55;;;8.20;82.10;;;;;;5030203;28;20136;-83
2021/10/02 05:13:45;;;;;;;14.15;8.63;;;8.30;82.00;;;;;;5014894;28;20041;-84
2021/10/02 05:16:11;;;;;;;14.40;8.60;;;8.40;82.00;;;;;;5030672;28;20049;-84
2021/10/02 05:18:37;;;;;;;17.15;9.35;;;8.40;81.70;;;;;;5015635;28;20022;-84
2021/10/02 05:21:03;;;;;;;18.45;9.68;;;8.50;81.60;;;;;;5015425;28;20034;-84
2021/10/02 05:23:30;;;;;;;19.45;11.05;;;8.60;81.50;;;;;;5033751;28;20041;-85
2021/10/02 05:25:56;;;;;;;21.58;12.32;;;8.70;81.20;;;;;;5015126;28;20080;-84
2021/10/02 05:28:23;;;;;;;21.90;12.20;;;8.80;80.90;;;;;;5014317;28;20033;-84
2021/10/02 05:30:49;;;;;;;21.42;11.60;;;8.90;80.80;;;;;;5031362;28;20352;-85
2021/10/02 05:33:15;;;;;;;24.13;13.00;;;9.00;80.50;;;;;;5015214;28;20026;-84
2021/10/02 05:35:41;;;;;;;22.92;11.52;;;9.10;80.30;;;;;;5014753;28;20100;-84
2021/10/02 05:38:07;;;;;;;22.27;12.35;;;9.20;80.10;;;;;;5014925;28;20029;-83
2021/10/02 05:40:33;;;;;;;22.23;12.68;;;9.30;79.80;;;;;;5016076;28;20034;-84
2021/10/02 05:43:02;;;;;;;19.95;12.57;;;9.30;79.60;;;;;;5016014;28;20037;-83
2021/10/02 05:45:30;;;;;;;23.35;13.00;;;9.40;79.40;;;;;;5016077;28;20026;-85
2021/10/02 05:47:56;;;;;;;19.98;12.02;;;9.50;79.20;;;;;;5032869;28;20176;-91
2021/10/02 05:50:23;;;;;;;19.58;12.27;;;9.60;78.90;;;;;;5018219;28;20085;-93
2021/10/02 05:52:48;;;;;;;22.60;12.65;;;9.70;78.60;;;;;;5034608;28;20037;-90
2021/10/02 05:55:15;;;;;;;18.08;11.48;;;9.80;78.30;;;;;;5018009;28;20084;-87
2021/10/02 05:57:40;;;;;;;17.95;10.82;;;9.90;77.90;;;;;;5017700;28;20025;-88
2021/10/02 06:00:07;;;;;;;17.48;10.02;;;10.00;77.60;;;;;;5018292;28;20515;-84
2021/10/02 06:02:33;;;;;;;22.35;11.63;;;10.10;77.20;;;;;;5031222;28;20065;-88
2021/10/02 06:04:59;;;;;;;22.65;12.93;;;10.20;76.40;;;;;;5021454;28;20049;-89
2021/10/02 06:07:25;;;;;;;21.88;13.52;;;10.30;76.30;;;;;;5034473;28;20033;-92
2021/10/02 06:09:51;;;;;;;20.98;11.82;;;10.40;76.00;;;;;;5032789;28;20061;-89
2021/10/02 06:12:18;;;;;;;17.38;11.02;;;10.60;75.50;;;;;;5033189;28;20499;-94
2021/10/02 06:14:44;;;;;;;19.08;11.20;;;10.70;75.10;;;;;;5035987;28;20058;-94
2021/10/02 06:17:10;;;;;;;19.67;11.20;;;10.80;74.30;;;;;;5018325;28;20050;-91
2021/10/02 06:19:36;;;;;;;21.65;12.50;;;10.90;73.70;;;;;;5018571;28;20038;-89
2021/10/02 06:22:03;;;;;;;24.67;14.35;;;11.00;73.00;;;;;;5015375;28;20396;-84
2021/10/02 06:24:30;;;;;;;26.08;15.00;;;11.10;72.10;;;;;;5015775;28;20357;-88
2021/10/02 06:26:56;;;;;;;25.10;14.77;;;11.20;71.60;;;;;;5032471;28;20058;-89
2021/10/02 06:29:23;;;;;;;28.45;15.32;;;11.30;71.10;;;;;;5016797;28;20038;-86
2021/10/02 06:31:49;;;;;;;28.80;15.43;;;11.40;71.00;;;;;;5031782;28;20045;-89
2021/10/02 06:37:37;;;;;;;31.40;17.38;;;11.70;69.40;;;;;;5016457;28;20109;-87
2021/10/02 06:40:13;;;;;;;28.27;16.48;;;11.90;70.20;;;;;;5015098;28;20480;-87
2021/10/02 06:42:39;;;;;;;27.15;15.35;;;12.00;70.00;;;;;;5017618;28;20368;-90
2021/10/02 06:45:06;;;;;;;25.75;14.27;;;12.20;70.10;;;;;;5035379;28;20034;-87
2021/10/02 06:47:32;;;;;;;26.00;14.15;;;12.30;70.10;;;;;;5013206;28;20030;-85
2021/10/02 06:49:58;;;;;;;19.77;12.05;;;12.50;70.20;;;;;;5015665;28;20034;-88
2021/10/02 06:52:25;;;;;;;22.25;12.07;;;12.60;70.20;;;;;;5016314;28;20113;-86
2021/10/02 06:54:51;;;;;;;17.17;10.00;;;12.80;70.20;;;;;;5030786;28;20133;-86
2021/10/02 06:57:17;;;;;;;18.50;9.85;;;12.90;70.10;;;;;;5014167;28;20479;-86
2021/10/02 06:59:43;;;;;;;13.00;8.38;;;13.10;70.10;;;;;;5015886;28;20026;-86
2021/10/02 07:02:08;;;;;;;14.18;7.72;;;13.20;70.10;;;;;;5018133;28;20038;-86
2021/10/02 07:04:34;;;;;;;13.15;6.95;;;13.30;70.00;;;;;;5016892;28;20363;-87
2021/10/02 07:07:00;;;;;;;12.43;7.75;;;13.40;70.00;;;;;;5017317;28;20022;-86
2021/10/02 07:09:26;;;;;;;11.02;6.97;;;13.50;69.80;;;;;;5017156;28;20037;-86
2021/10/02 07:11:51;;;;;;;13.18;6.38;;;13.70;70.10;;;;;;5018250;28;20042;-87
2021/10/02 07:14:18;;;;;;;8.63;5.45;;;13.90;70.40;;;;;;5017999;28;20080;-85
2021/10/02 07:16:43;;;;;;;9.13;5.50;;;14.10;70.50;;;;;;5018537;28;20436;-86
2021/10/02 07:19:09;;;;;;;9.93;6.15;;;14.40;70.30;;;;;;5034888;28;20061;-86
2021/10/02 07:21:35;;;;;;;11.90;6.80;;;14.60;70.00;;;;;;5020319;28;20041;-86
2021/10/02 07:24:00;;;;;;;10.88;6.70;;;14.80;69.80;;;;;;5019961;28;20068;-86
2021/10/02 07:26:27;;;;;;;9.15;6.28;;;15.00;69.80;;;;;;5018134;28;20033;-86
2021/10/02 07:28:53;;;;;;;9.52;6.10;;;15.30;70.40;;;;;;5018087;28;20054;-86
2021/10/02 07:31:19;;;;;;;10.30;6.00;;;15.70;71.50;;;;;;5017732;28;20049;-86
2021/10/02 07:33:45;;;;;;;8.82;5.82;;;16.10;72.20;;;;;;5018642;28;20030;-84
2021/10/02 07:36:11;;;;;;;10.85;5.93;;;16.60;72.50;;;;;;5018446;28;20033;-86
2021/10/02 07:38:37;;;;;;;8.30;6.22;;;17.10;71.50;;;;;;5017031;28;20029;-86
2021/10/02 07:41:03;;;;;;;10.40;5.75;;;17.50;70.50;;;;;;5018827;28;20030;-86
2021/10/02 07:43:30;;;;;;;8.68;5.88;;;17.90;69.50;;;;;;5019419;28;20536;-87
2021/10/02 07:45:57;;;;;;;9.98;5.80;;;18.30;68.50;;;;;;5019588;28;20096;-85
2021/10/02 07:48:24;;;;;;;10.23;5.93;;;18.70;67.00;;;;;;5033004;28;20029;-85
2021/10/02 07:50:54;;;;;;;8.23;5.60;;;19.00;65.20;;;;;;5033228;28;20033;-86
2021/10/02 07:53:22;;;;;;;7.43;5.13;;;19.30;63.60;;;;;;5017818;28;20053;-85
2021/10/02 07:55:51;;;;;;;9.75;6.70;;;19.60;63.10;;;;;;5017214;28;20109;-87
2021/10/02 07:58:26;;;;;;;10.48;7.85;;;19.90;60.50;;;;;;5018094;28;20030;-87
2021/10/02 08:00:56;;;;;;;14.93;11.68;;;20.20;56.70;;;;;;5016182;28;20065;-87
2021/10/02 08:03:23;;;;;;;12.25;9.43;;;20.50;58.90;;;;;;5016150;28;20029;-86
2021/10/02 08:05:51;;;;;;;9.65;7.38;;;20.70;57.80;;;;;;5032000;28;20061;-86
2021/10/02 08:08:18;;;;;;;8.25;6.38;;;21.00;56.60;;;;;;5017500;28;20467;-86
2021/10/02 08:10:46;;;;;;;8.10;4.80;;;21.10;55.30;;;;;;5017374;28;20034;-86
2021/10/02 08:13:14;;;;;;;9.43;5.53;;;21.20;53.50;;;;;;5017699;28;20025;-86
2021/10/02 08:16:01;;;;;;;8.63;5.30;;;21.40;52.50;;;;;;5017083;28;20030;-86
2021/10/02 08:18:30;;;;;;;6.82;4.72;;;21.50;44.40;;;;;;5032765;28;20080;-88
2021/10/02 08:20:58;;;;;;;7.35;5.05;;;21.60;50.50;;;;;;5017668;28;20026;-86
2021/10/02 08:23:25;;;;;;;8.80;5.65;;;21.70;50.40;;;;;;5018805;28;20523;-87
2021/10/02 08:25:53;;;;;;;8.40;5.50;;;21.90;50.60;;;;;;5017777;28;20065;-87
2021/10/02 08:28:19;;;;;;;6.80;4.90;;;22.10;50.80;;;;;;5018626;28;20025;-86
2021/10/02 08:30:46;;;;;;;6.90;5.13;;;22.30;50.10;;;;;;5016974;28;20100;-85
2021/10/02 08:33:16;;;;;;;7.68;5.50;;;22.50;49.70;;;;;;5032117;28;20432;-87
2021/10/02 08:35:42;;;;;;;6.97;5.40;;;22.70;49.40;;;;;;5032553;28;20550;-86
2021/10/02 08:38:08;;;;;;;6.95;5.28;;;22.80;49.10;;;;;;5023462;28;20030;-86
2021/10/02 08:40:34;;;;;;;7.05;5.25;;;23.00;48.70;;;;;;5022623;28;20026;-86
2021/10/02 08:43:02;;;;;;;7.05;4.57;;;23.10;47.70;;;;;;5023981;28;20030;-86
2021/10/02 08:45:29;;;;;;;8.52;5.03;;;23.20;47.60;;;;;;5020726;28;20025;-87
2021/10/02 08:47:58;;;;;;;6.95;4.50;;;23.30;47.50;;;;;;5017029;28;20411;-87
2021/10/02 08:50:25;;;;;;;6.45;4.63;;;23.50;47.30;;;;;;5032433;28;20034;-87
2021/10/02 08:52:53;;;;;;;5.75;3.90;;;23.70;47.20;;;;;;5016249;28;20029;-87
2021/10/02 08:55:20;;;;;;;6.07;4.00;;;23.90;46.90;;;;;;5015410;28;20477;-86
2021/10/02 08:57:48;;;;;;;7.20;4.15;;;24.00;46.00;;;;;;5017229;28;20060;-88
2021/10/02 09:00:17;;;;;;;4.93;3.67;;;24.10;45.10;;;;;;5017531;28;20033;-85
2021/10/02 09:02:45;;;;;;;7.10;4.30;;;24.10;44.60;;;;;;5032119;28;20037;-85
2021/10/02 09:05:12;;;;;;;5.40;3.67;;;24.20;44.30;;;;;;5017792;28;20033;-86
2021/10/02 09:07:38;;;;;;;5.50;3.60;;;24.30;43.70;;;;;;5017565;28;20041;-86
2021/10/02 09:10:07;;;;;;;8.77;3.90;;;24.40;43.40;;;;;;5036487;28;20030;-85
2021/10/02 09:12:33;;;;;;;6.43;3.63;;;24.50;42.40;;;;;;5049459;28;20026;-86
2021/10/02 09:15:02;;;;;;;4.32;3.10;;;24.50;42.20;;;;;;5051029;28;20026;-86
2021/10/02 09:17:32;;;;;;;4.95;3.40;;;24.60;41.60;;;;;;5036772;28;20094;-87
2021/10/02 09:19:58;;;;;;;3.97;3.00;;;24.60;40.90;;;;;;5036297;28;20034;-86
2021/10/02 09:22:26;;;;;;;5.22;3.60;;;24.60;40.80;;;;;;5036464;28;20022;-86
2021/10/02 09:24:53;;;;;;;5.95;3.40;;;24.70;40.80;;;;;;5052372;28;20024;-85
2021/10/02 09:27:24;;;;;;;5.20;3.15;;;24.80;40.50;;;;;;5038069;28;20033;-85
2021/10/02 09:29:55;;;;;;;4.28;3.10;;;25.10;40.20;;;;;;5034413;28;20087;-85
2021/10/02 09:32:26;;;;;;;5.10;3.22;;;25.20;39.70;;;;;;5045919;28;20042;-85
2021/10/02 09:34:54;;;;;;;5.25;3.45;;;25.20;38.80;;;;;;5034992;28;20029;-86
2021/10/02 09:37:35;;;;;;;3.88;3.00;;;25.20;38.90;;;;;;5019570;28;20033;-87
2021/10/02 09:40:08;;;;;;;5.95;3.30;;;25.40;36.90;;;;;;5018837;28;20034;-86
2021/10/02 09:42:41;;;;;;;5.57;3.08;;;25.60;38.40;;;;;;5033100;28;20034;-87
2021/10/02 09:45:09;;;;;;;4.25;2.90;;;25.70;38.10;;;;;;5017515;28;20062;-86
2021/10/02 09:47:37;;;;;;;4.95;3.80;;;25.90;37.70;;;;;;5031650;28;20022;-87
2021/10/02 09:50:13;;;;;;;5.20;3.42;;;25.90;37.60;;;;;;5015872;28;20076;-85
2021/10/02 09:52:42;;;;;;;5.47;3.55;;;26.00;34.30;;;;;;5019647;28;20087;-85
2021/10/02 09:55:29;;;;;;;6.70;3.80;;;25.90;36.50;;;;;;5034914;28;20076;-82
2021/10/02 09:58:09;;;;;;;5.38;3.67;;;26.10;33.80;;;;;;5034737;28;20037;-85
2021/10/02 10:00:47;;;;;;;5.32;3.60;;;26.20;35.40;;;;;;5015478;28;20100;-84
2021/10/02 10:03:15;;;;;;;5.07;3.25;;;26.20;35.80;;;;;;5016667;28;20022;-87
2021/10/02 10:05:59;;;;;;;5.97;3.22;;;26.10;34.90;;;;;;5015835;28;20033;-85
2021/10/02 10:08:29;;;;;;;4.90;3.10;;;26.10;34.90;;;;;;5016243;28;20049;-85
2021/10/02 10:11:06;;;;;;;5.45;3.15;;;26.10;35.00;;;;;;5015627;28;20082;-86
2021/10/02 10:13:32;;;;;;;4.03;2.90;;;26.20;32.50;;;;;;5014995;28;20034;-86
2021/10/02 10:15:57;;;;;;;5.60;3.08;;;26.20;34.60;;;;;;5015064;28;20364;-88
2021/10/02 10:18:38;;;;;;;5.57;3.60;;;26.30;34.30;;;;;;5015548;28;20034;-86
2021/10/02 10:21:09;;;;;;;4.63;3.30;;;26.40;33.30;;;;;;5014909;28;20069;-86
2021/10/02 10:23:40;;;;;;;4.15;2.80;;;26.40;32.60;;;;;;5030203;28;20029;-87
2021/10/02 10:26:11;;;;;;;3.97;2.55;;;26.30;32.60;;;;;;5014235;28;20034;-87
2021/10/02 10:28:43;;;;;;;3.35;2.50;;;26.30;33.50;;;;;;5016836;28;20030;-87
2021/10/02 10:31:11;;;;;;;3.22;2.30;;;26.50;32.90;;;;;;5014518;28;20044;-85
2021/10/02 10:33:39;;;;;;;2.63;2.38;;;26.70;33.60;;;;;;5014979;28;20116;-86
2021/10/02 10:36:05;;;;;;;9.30;2.60;;;26.80;33.00;;;;;;5015543;28;20506;-86
2021/10/02 10:38:35;;;;;;;2.95;2.20;;;26.90;32.80;;;;;;5016030;28;20065;-86
2021/10/02 10:41:05;;;;;;;3.45;2.38;;;27.00;32.60;;;;;;5030077;28;20084;-86
2021/10/02 10:43:32;;;;;;;3.08;2.50;;;27.10;32.50;;;;;;5014947;28;20034;-86
2021/10/02 10:46:03;;;;;;;4.93;2.67;;;27.20;32.50;;;;;;5014704;28;20465;-87
2021/10/02 10:48:30;;;;;;;4.65;2.80;;;27.30;32.50;;;;;;5013485;28;20026;-85
2021/10/02 10:51:04;;;;;;;3.97;2.90;;;27.40;32.40;;;;;;5014540;28;20084;-85
2021/10/02 10:53:50;;;;;;;3.58;2.70;;;27.50;31.90;;;;;;5030364;28;20472;-87
2021/10/02 10:56:37;;;;;;;3.00;2.38;;;27.70;31.10;;;;;;4998435;28;20033;-87
2021/10/02 10:59:03;;;;;;;4.10;2.95;;;27.70;31.90;;;;;;5031518;28;20116;-87
2021/10/02 11:01:40;;;;;;;4.07;2.78;;;27.80;32.00;;;;;;5030625;28;20125;-88
2021/10/02 11:04:26;;;;;;;3.10;2.50;;;27.90;31.40;;;;;;5015095;28;20029;-86
2021/10/02 11:06:57;;;;;;;3.45;2.60;;;27.90;31.80;;;;;;5014778;28;20026;-87
2021/10/02 11:09:36;;;;;;;4.53;2.58;;;28.00;31.80;;;;;;5029875;28;20029;-90
2021/10/02 11:12:04;;;;;;;5.72;3.33;;;28.10;29.60;;;;;;5016073;28;20037;-94
2021/10/02 11:14:51;;;;;;;5.95;4.30;;;28.10;31.60;;;;;;5014513;28;20034;-84
2021/10/02 11:17:38;;;;;;;4.45;3.13;;;28.10;30.10;;;;;;5013362;28;20104;-84
2021/10/02 11:20:22;;;;;;;4.13;3.10;;;28.00;29.80;;;;;;5017872;28;20075;-90
2021/10/02 11:23:13;;;;;;;4.60;3.08;;;28.10;29.60;;;;;;5029216;28;20034;-87
2021/10/02 11:25:40;;;;;;;5.68;3.30;;;28.10;30.10;;;;;;5013583;28;20105;-85
2021/10/02 11:28:21;;;;;;;4.40;3.00;;;28.20;32.10;;;;;;5029459;28;20449;-87
2021/10/02 11:30:48;;;;;;;3.63;2.83;;;28.40;30.50;;;;;;5013823;28;20420;-85
2021/10/02 11:33:56;;;;;;;4.18;3.03;;;28.40;31.30;;;;;;5012128;28;20088;-87
2021/10/02 11:36:28;;;;;;;3.13;2.72;;;28.60;29.40;;;;;;5002790;28;20126;-85
2021/10/02 11:39:11;;;;;;;5.32;3.17;;;28.60;30.00;;;;;;5028723;28;20026;-85
2021/10/02 11:41:48;;;;;;;4.35;3.22;;;28.70;29.20;;;;;;5028396;28;20073;-85
2021/10/02 11:44:44;;;;;;;4.47;3.45;;;28.80;30.30;;;;;;5030877;28;20037;-87
2021/10/02 11:47:33;;;;;;;6.38;3.30;;;28.70;29.90;;;;;;5021209;28;20041;-83
2021/10/02 11:50:11;;;;;;;3.70;3.03;;;28.50;29.80;;;;;;5017166;28;20522;-80
2021/10/02 11:52:45;;;;;;;5.00;3.10;;;28.60;29.70;;;;;;5034769;28;20038;-81
2021/10/02 11:55:33;;;;;;;3.22;2.83;;;28.70;29.80;;;;;;5033231;28;20045;-94
2021/10/02 11:58:11;;;;;;;3.60;2.70;;;28.90;29.40;;;;;;5019953;28;20361;-92
2021/10/02 12:01:00;;;;;;;3.58;2.80;;;28.70;29.10;;;;;;5025015;28;20034;-91
2021/10/02 12:03:27;;;;;;;5.97;2.80;;;28.80;28.60;;;;;;5039837;28;20165;-91
2021/10/02 12:05:55;;;;;;;3.83;2.50;;;28.60;29.80;;;;;;5036493;28;20175;-91
2021/10/02 12:08:21;;;;;;;3.83;2.88;;;28.80;29.70;;;;;;5038200;28;20084;-89
2021/10/02 12:11:07;;;;;;;4.28;2.80;;;28.60;29.80;;;;;;5040666;28;20037;-91
2021/10/02 12:13:38;;;;;;;4.75;2.40;;;28.70;28.90;;;;;;5037504;28;20143;-90
2021/10/02 12:16:10;;;;;;;3.22;2.67;;;28.70;29.80;;;;;;5037179;28;20037;-89
2021/10/02 12:19:11;;;;;;;6.10;2.70;;;28.70;29.80;;;;;;5038918;28;20052;-91
2021/10/02 12:21:46;;;;;;;3.13;2.67;;;28.90;28.50;;;;;;5038135;28;20049;-89
2021/10/02 12:24:18;;;;;;;3.20;2.50;;;28.90;28.80;;;;;;5039217;28;20053;-92
2021/10/02 12:26:48;;;;;;;3.63;1.98;;;28.80;29.40;;;;;;5041471;28;20036;-90
2021/10/02 12:29:17;;;;;;;3.67;2.40;;;29.00;29.20;;;;;;5039876;28;20033;-91
2021/10/02 12:31:47;;;;;;;4.35;2.85;;;29.20;29.10;;;;;;5045331;28;20448;-88
2021/10/02 12:34:22;;;;;;;3.92;2.42;;;29.20;29.00;;;;;;5041286;28;20448;-92
2021/10/02 12:36:56;;;;;;;3.17;2.63;;;29.30;29.00;;;;;;5039756;28;20035;-91
2021/10/02 12:39:32;;;;;;;4.85;2.70;;;29.40;28.80;;;;;;5037846;28;20463;-86
2021/10/02 12:41:59;;;;;;;3.70;2.53;;;29.30;28.50;;;;;;5036695;28;20146;-86
2021/10/02 12:44:32;;;;;;;2.75;2.30;;;29.20;28.80;;;;;;5036848;28;20371;-86
2021/10/02 12:47:02;;;;;;;3.80;2.55;;;29.20;28.70;;;;;;5017037;28;20045;-84
2021/10/02 12:49:30;;;;;;;4.85;3.10;;;29.30;28.90;;;;;;5017767;28;20030;-85
2021/10/02 12:51:56;;;;;;;4.00;3.17;;;29.10;28.80;;;;;;5027480;28;20069;-83
2021/10/02 12:54:25;;;;;;;4.07;2.78;;;29.00;28.80;;;;;;5025358;28;20049;-86
2021/10/02 12:57:13;;;;;;;3.63;2.95;;;29.10;28.90;;;;;;5014944;28;20038;-86
2021/10/02 12:59:42;;;;;;;4.10;3.10;;;29.10;27.90;;;;;;5014480;28;20479;-85
2021/10/02 13:02:08;;;;;;;4.87;2.70;;;29.10;28.90;;;;;;5018478;28;20108;-85
2021/10/02 13:04:34;;;;;;;4.53;2.80;;;29.10;28.70;;;;;;5015088;28;20045;-85
2021/10/02 13:07:01;;;;;;;3.63;2.78;;;29.20;29.10;;;;;;5026469;28;20429;-87
2021/10/02 13:12:59;;;;;;;5.15;2.30;;;29.10;27.70;;;;;;5016102;28;20075;-85
2021/10/02 13:15:43;;;;;;;2.85;2.33;;;29.10;28.70;;;;;;5034330;28;20484;-83
2021/10/02 13:18:25;;;;;;;3.88;2.30;;;29.10;28.60;;;;;;5028947;28;20491;-85
2021/10/02 13:20:53;;;;;;;3.78;2.47;;;29.20;28.40;;;;;;5003656;28;20137;-88
2021/10/02 13:23:28;;;;;;;6.07;2.70;;;29.10;28.70;;;;;;5011957;28;20038;-83
2021/10/02 13:25:55;;;;;;;3.97;2.95;;;29.10;28.50;;;;;;5001599;28;20030;-85
2021/10/02 13:28:23;;;;;;;3.00;2.60;;;29.00;28.70;;;;;;5014479;28;20030;-84
2021/10/02 13:30:50;;;;;;;5.53;2.70;;;29.10;28.60;;;;;;5015244;28;20130;-84
2021/10/02 13:33:22;;;;;;;5.28;2.83;;;29.10;28.40;;;;;;5013813;28;20033;-88
2021/10/02 13:35:59;;;;;;;3.13;2.70;;;29.10;28.60;;;;;;4997929;28;20453;-85
2021/10/02 13:38:41;;;;;;;3.70;2.92;;;29.10;28.10;;;;;;5013010;28;20038;-83
2021/10/02 13:41:13;;;;;;;4.40;2.80;;;29.10;28.40;;;;;;5013619;28;20478;-87
2021/10/02 13:44:01;;;;;;;4.88;3.08;;;28.90;28.40;;;;;;5014853;28;20034;-83
2021/10/02 13:46:34;;;;;;;5.72;2.90;;;28.70;28.10;;;;;;5015796;28;20029;-82
2021/10/02 13:49:02;;;;;;;4.30;3.20;;;28.60;28.90;;;;;;5031127;28;20041;-84
2021/10/02 13:51:28;;;;;;;4.85;3.33;;;28.50;28.90;;;;;;5014252;28;20132;-85
2021/10/02 13:53:56;;;;;;;5.70;3.60;;;28.20;28.90;;;;;;5015273;28;20457;-82
2021/10/02 13:56:22;;;;;;;6.45;3.78;;;28.00;29.10;;;;;;5015659;28;20034;-91
2021/10/02 13:58:48;;;;;;;6.72;3.40;;;28.00;29.30;;;;;;5015990;28;20037;-84
2021/10/02 14:01:14;;;;;;;5.55;3.50;;;28.00;29.50;;;;;;5014990;28;20018;-86
2021/10/02 14:03:39;;;;;;;4.72;3.10;;;28.10;29.30;;;;;;5015052;28;20030;-86